Time;durP1;ratioP1;P1;durP2;ratioP2;P2;SDS_P1;SDS_P2;PMS_P1;PMS_P2;Temp;Humidity;BMP_temperature;BMP_pressure;BME280_temperature;BME280_humidity;BME280_pressure;Samples;Min_cycle;Max_cycle;Signal;HPM_P1;HPM_P2
2023/12/08 00:00:31;;;;;;;5.43;3.10;;;;;;;-141.97;100.00;46004.84;6209990;23;20176;-87
2023/12/08 00:02:56;;;;;;;23.97;7.03;;;;;;;-141.97;100.00;45933.75;6182549;23;20377;-87
2023/12/08 00:05:22;;;;;;;9.60;5.20;;;;;;;-141.97;100.00;46271.91;6175776;23;20145;-85
2023/12/08 00:07:47;;;;;;;7.87;4.60;;;;;;;-141.97;100.00;46125.88;6189053;23;20564;-85
2023/12/08 00:10:12;;;;;;;8.93;5.70;;;;;;;-141.97;100.00;46135.50;6185265;23;20126;-86
2023/12/08 00:12:38;;;;;;;8.67;5.07;;;;;;;-141.97;100.00;46571.66;6185153;23;20185;-85
2023/12/08 00:15:05;;;;;;;8.10;4.30;;;;;;;-141.97;100.00;46139.34;6184328;23;20135;-85
2023/12/08 00:17:31;;;;;;;12.50;7.07;;;;;;;-141.97;100.00;46193.13;6158461;23;20237;-88
2023/12/08 00:19:56;;;;;;;12.47;6.87;;;;;;;-141.97;100.00;46083.63;6158364;23;20870;-88
2023/12/08 00:22:22;;;;;;;7.67;4.47;;;;;;;-141.97;100.00;46231.56;6185588;23;20142;-88
2023/12/08 00:24:48;;;;;;;10.93;6.43;;;;;;;-141.97;100.00;46262.28;6185932;23;20209;-88
2023/12/08 00:27:13;;;;;;;6.43;3.90;;;;;;;-141.97;100.00;46243.09;6185239;23;20142;-89
2023/12/08 00:29:39;;;;;;;7.60;4.57;;;;;;;-141.97;100.00;46166.22;6184550;23;20924;-90
2023/12/08 00:32:05;;;;;;;10.87;6.43;;;;;;;-141.97;100.00;46677.31;6158798;23;20150;-89
2023/12/08 00:34:31;;;;;;;11.77;6.40;;;;;;;-141.97;100.00;46479.41;6184844;23;20134;-88
2023/12/08 00:36:57;;;;;;;8.00;4.63;;;;;;;-141.97;100.00;46123.97;6185813;23;20826;-88
2023/12/08 00:39:23;;;;;;;6.67;3.87;;;;;;;-141.97;100.00;46304.56;6185335;23;20245;-89
2023/12/08 00:41:48;;;;;;;8.27;4.80;;;;;;;-141.97;100.00;46540.91;6185814;23;20365;-90
2023/12/08 00:44:13;;;;;;;11.23;5.93;;;;;;;-141.97;100.00;46636.97;6185026;23;20134;-90
2023/12/08 00:46:39;;;;;;;7.10;4.10;;;;;;;-141.97;100.00;46047.13;6185572;23;20157;-89
2023/12/08 00:49:04;;;;;;;10.60;5.30;;;;;;;-141.97;100.00;46667.72;6158658;23;20153;-89
2023/12/08 00:51:30;;;;;;;10.73;5.43;;;;;;;-141.97;100.00;46583.16;6188994;23;20205;-88
2023/12/08 00:53:55;;;;;;;9.10;3.83;;;;;;;-141.97;100.00;46442.91;6164300;23;20145;-90
2023/12/08 00:56:20;;;;;;;11.43;6.13;;;;;;;-141.97;100.00;46116.28;6163183;23;20146;-89
2023/12/08 00:58:46;;;;;;;7.10;4.00;;;;;;;-141.97;100.00;46446.75;6189052;23;20483;-88
2023/12/08 01:01:11;;;;;;;10.07;5.40;;;;;;;-141.97;100.00;46613.91;6196583;23;20150;-89
2023/12/08 01:03:37;;;;;;;9.10;4.97;;;;;;;-141.97;100.00;46688.84;6185514;23;20157;-88
2023/12/08 01:06:02;;;;;;;9.33;5.13;;;;;;;-141.97;100.00;46519.75;6194521;23;20576;-88
2023/12/08 01:08:28;;;;;;;8.87;5.40;;;;;;;-141.97;100.00;46104.75;6186955;23;20134;-88
2023/12/08 01:10:53;;;;;;;10.83;5.47;;;;;;;-141.97;100.00;46066.31;6185703;23;20220;-89
2023/12/08 01:13:19;;;;;;;12.03;6.43;;;;;;;-141.97;100.00;45954.91;6187534;23;20222;-89
2023/12/08 01:15:46;;;;;;;10.70;5.73;;;;;;;-141.97;100.00;46118.19;6159758;23;20653;-88
2023/12/08 01:18:12;;;;;;;13.20;6.10;;;;;;;-141.97;100.00;46552.44;6186370;23;20377;-90
2023/12/08 01:20:37;;;;;;;10.27;5.43;;;;;;;-141.97;100.00;46266.13;6159084;23;20417;-89
2023/12/08 01:23:03;;;;;;;11.13;5.50;;;;;;;-141.97;100.00;46631.22;6158823;23;20143;-88
2023/12/08 01:25:28;;;;;;;10.80;5.53;;;;;;;-141.97;100.00;46248.84;6186183;23;20145;-89
2023/12/08 01:27:55;;;;;;;10.57;5.17;;;;;;;-141.97;100.00;46237.31;6159193;23;20228;-89
2023/12/08 01:30:21;;;;;;;10.73;5.87;;;;;;;-141.97;100.00;46264.22;6186268;23;20126;-87
2023/12/08 01:32:46;;;;;;;8.60;5.00;;;;;;;-141.97;100.00;46148.94;6159217;23;20443;-87
2023/12/08 01:35:11;;;;;;;13.53;7.07;;;;;;;-141.97;100.00;46711.91;6159920;23;20164;-88
2023/12/08 01:37:37;;;;;;;12.17;7.23;;;;;;;-141.97;100.00;46268.06;6176959;23;20150;-86
2023/12/08 01:40:03;;;;;;;9.60;5.43;;;;;;;-141.97;100.00;46617.75;6205771;23;20198;-87
2023/12/08 01:42:28;;;;;;;11.20;5.80;;;;;;;-141.97;100.00;46269.97;6173429;23;20161;-88
2023/12/08 01:44:54;;;;;;;12.27;6.17;;;;;;;-141.97;100.00;46181.59;6185311;23;20366;-88
2023/12/08 01:47:19;;;;;;;10.20;5.43;;;;;;;-141.97;100.00;46521.69;6158905;23;20539;-87
2023/12/08 01:49:45;;;;;;;10.43;5.80;;;;;;;-141.97;100.00;46523.59;6158280;23;20197;-88
2023/12/08 01:52:20;;;;;;;12.20;6.63;;;;;;;-141.97;100.00;46575.50;6158670;23;20623;-87
2023/12/08 01:54:46;;;;;;;11.90;5.80;;;;;;;-141.97;100.00;46137.41;6158694;23;20142;-88
2023/12/08 01:57:11;;;;;;;13.50;7.23;;;;;;;-141.97;100.00;46237.31;6158723;23;20377;-88
2023/12/08 01:59:36;;;;;;;13.80;6.77;;;;;;;-141.97;100.00;46058.63;6184691;23;20165;-87
2023/12/08 02:02:02;;;;;;;11.93;6.17;;;;;;;-141.97;100.00;45951.06;6184636;23;20177;-88
2023/12/08 02:04:28;;;;;;;11.13;5.33;;;;;;;-141.97;100.00;46246.94;6185070;23;20482;-89
2023/12/08 02:06:54;;;;;;;10.50;5.53;;;;;;;-141.97;100.00;46123.97;6185276;23;20587;-88
2023/12/08 02:09:20;;;;;;;14.17;7.10;;;;;;;-141.97;100.00;46016.38;6159747;23;20142;-88
2023/12/08 02:11:46;;;;;;;12.23;5.90;;;;;;;-141.97;100.00;46619.69;6184747;23;20739;-89
2023/12/08 02:14:13;;;;;;;8.80;4.73;;;;;;;-141.97;100.00;46047.13;6158249;23;20174;-89
2023/12/08 02:16:49;;;;;;;12.60;7.50;;;;;;;-141.97;100.00;46116.28;6184735;23;20130;-88
2023/12/08 02:19:17;;;;;;;8.37;4.70;;;;;;;-141.97;100.00;46131.66;6157470;23;20377;-91
2023/12/08 02:21:42;;;;;;;10.00;5.43;;;;;;;-141.97;100.00;46193.13;6158016;23;20672;-89
2023/12/08 02:24:07;;;;;;;10.27;6.20;;;;;;;-141.97;100.00;46148.94;6184051;23;20393;-90
2023/12/08 02:26:33;;;;;;;9.40;5.43;;;;;;;-141.97;100.00;46047.13;6157734;23;20583;-89
2023/12/08 02:28:59;;;;;;;8.50;5.00;;;;;;;-141.97;100.00;46241.16;6183806;23;20134;-90
2023/12/08 02:31:33;;;;;;;11.40;6.27;;;;;;;-141.97;100.00;46047.13;6157205;23;20584;-89
2023/12/08 02:34:00;;;;;;;11.67;5.33;;;;;;;-141.97;100.00;46550.50;6157873;23;20288;-89
2023/12/08 02:36:26;;;;;;;11.77;6.63;;;;;;;-141.97;100.00;46054.81;6183518;23;20365;-89
2023/12/08 02:38:54;;;;;;;10.50;5.03;;;;;;;-141.97;100.00;46123.97;6187331;23;20365;-88
2023/12/08 02:41:19;;;;;;;13.40;7.23;;;;;;;-141.97;100.00;46135.50;6166430;23;20170;-88
2023/12/08 02:43:45;;;;;;;14.60;8.20;;;;;;;-141.97;100.00;46112.44;6183431;23;20377;-89
2023/12/08 02:46:10;;;;;;;12.97;6.63;;;;;;;-141.97;100.00;46569.72;6184023;23;20134;-88
2023/12/08 02:48:36;;;;;;;11.10;5.17;;;;;;;-141.97;100.00;46241.16;6157399;23;20197;-89
2023/12/08 02:51:04;;;;;;;10.83;6.17;;;;;;;-141.97;100.00;46150.84;6185586;23;20172;-88
2023/12/08 02:53:29;;;;;;;16.00;7.33;;;;;;;-141.97;100.00;46087.47;6186056;23;20658;-88
2023/12/08 02:55:54;;;;;;;13.63;7.17;;;;;;;-141.97;100.00;46558.19;6159282;23;20373;-89
2023/12/08 02:58:20;;;;;;;14.53;8.30;;;;;;;-141.97;100.00;46127.81;6186056;23;20622;-89
2023/12/08 03:00:45;;;;;;;14.07;7.47;;;;;;;-141.97;100.00;46344.91;6185439;23;20166;-89
2023/12/08 03:03:11;;;;;;;12.60;5.87;;;;;;;-141.97;100.00;46200.81;6165724;23;20146;-90
2023/12/08 03:05:36;;;;;;;12.07;6.37;;;;;;;-141.97;100.00;46147.03;6185885;23;20481;-88
2023/12/08 03:08:01;;;;;;;13.60;7.30;;;;;;;-141.97;100.00;46029.81;6191983;23;20152;-89
2023/12/08 03:10:27;;;;;;;13.70;6.80;;;;;;;-141.97;100.00;46554.34;6163773;23;20158;-88
2023/12/08 03:12:52;;;;;;;16.90;8.30;;;;;;;-141.97;100.00;46519.75;6184873;23;20273;-88
2023/12/08 03:15:18;;;;;;;16.60;8.33;;;;;;;-141.97;100.00;46077.84;6185739;23;20171;-88
2023/12/08 03:17:43;;;;;;;17.90;8.70;;;;;;;-141.97;100.00;46590.84;6185052;23;20130;-87
2023/12/08 03:20:09;;;;;;;12.17;6.03;;;;;;;-141.97;100.00;46648.50;6158710;23;20178;-88
2023/12/08 03:22:34;;;;;;;17.10;7.90;;;;;;;-141.97;100.00;46220.03;6185146;23;20134;-87
2023/12/08 03:25:00;;;;;;;14.80;8.20;;;;;;;-141.97;100.00;46147.03;6159096;23;20142;-87
2023/12/08 03:27:25;;;;;;;20.40;10.00;;;;;;;-141.97;100.00;46269.97;6159876;23;20197;-87
2023/12/08 03:29:50;;;;;;;14.47;7.33;;;;;;;-141.97;100.00;46147.03;6158667;23;20539;-89
2023/12/08 03:32:16;;;;;;;18.57;9.00;;;;;;;-141.97;100.00;46214.25;6159022;23;20155;-88
2023/12/08 03:34:41;;;;;;;18.23;8.53;;;;;;;-141.97;100.00;46254.59;6158618;23;20146;-88
2023/12/08 03:37:07;;;;;;;14.83;8.00;;;;;;;-141.97;100.00;46216.19;6186420;23;20521;-88
2023/12/08 03:39:32;;;;;;;14.93;6.83;;;;;;;-141.97;100.00;46623.53;6186482;23;20170;-88
2023/12/08 03:41:57;;;;;;;17.37;9.17;;;;;;;-141.97;100.00;46546.66;6187869;23;20149;-88
2023/12/08 03:44:23;;;;;;;16.10;7.63;;;;;;;-141.97;100.00;46581.25;6159819;23;20142;-87
2023/12/08 03:46:48;;;;;;;14.53;7.70;;;;;;;-141.97;100.00;45979.88;6186143;23;20147;-88
2023/12/08 03:49:13;;;;;;;12.97;7.37;;;;;;;-141.97;100.00;46198.91;6159490;23;20193;-89
2023/12/08 03:51:39;;;;;;;17.47;8.87;;;;;;;-141.97;100.00;46462.13;6160844;23;20161;-89
2023/12/08 03:54:04;;;;;;;14.93;7.20;;;;;;;-141.97;100.00;46024.06;6190260;23;20196;-90
2023/12/08 03:56:30;;;;;;;15.10;7.43;;;;;;;-141.97;100.00;46070.16;6185554;23;20146;-89
2023/12/08 03:58:55;;;;;;;14.17;7.00;;;;;;;-141.97;100.00;46268.06;6158694;23;20217;-89
2023/12/08 04:01:21;;;;;;;16.93;7.80;;;;;;;-141.97;100.00;46162.38;6184871;23;20491;-88
2023/12/08 04:03:47;;;;;;;14.23;7.37;;;;;;;-141.97;100.00;46281.50;6159662;23;20150;-88
2023/12/08 04:06:13;;;;;;;14.43;7.87;;;;;;;-141.97;100.00;46191.22;6160673;23;20155;-89
2023/12/08 04:08:38;;;;;;;17.17;7.53;;;;;;;-141.97;100.00;46258.44;6185235;23;20383;-89
2023/12/08 04:11:04;;;;;;;16.47;8.10;;;;;;;-141.97;100.00;46377.56;6184439;23;20190;-89
2023/12/08 04:13:29;;;;;;;17.47;7.57;;;;;;;-141.97;100.00;46100.91;6159346;23;20162;-90
2023/12/08 04:15:55;;;;;;;21.43;8.43;;;;;;;-141.97;100.00;46058.63;6159430;23;20457;-89
2023/12/08 04:18:20;;;;;;;19.60;8.67;;;;;;;-141.97;100.00;46677.31;6158829;23;20146;-89
2023/12/08 04:20:46;;;;;;;22.07;10.40;;;;;;;-141.97;100.00;46458.28;6185865;23;20684;-89
2023/12/08 04:23:11;;;;;;;17.53;9.13;;;;;;;-141.97;100.00;46485.19;6160048;23;20146;-89
2023/12/08 04:25:37;;;;;;;17.33;8.63;;;;;;;-141.97;100.00;46070.16;6172304;23;20130;-90
2023/12/08 04:28:03;;;;;;;11.50;5.13;;;;;;;-141.97;100.00;46246.94;6210209;23;20173;-88
2023/12/08 04:30:29;;;;;;;16.63;8.17;;;;;;;-141.97;100.00;46346.84;6204462;23;20185;-90
2023/12/08 04:32:55;;;;;;;18.00;8.37;;;;;;;-141.97;100.00;46170.06;6211192;23;20389;-87
2023/12/08 04:35:21;;;;;;;18.70;7.97;;;;;;;-141.97;100.00;46166.22;6208222;23;20198;-87
2023/12/08 04:37:46;;;;;;;16.17;6.43;;;;;;;-141.97;100.00;46097.06;6183156;23;20384;-87
2023/12/08 04:40:12;;;;;;;17.47;8.83;;;;;;;-141.97;100.00;46243.09;6172483;23;20662;-88
2023/12/08 04:42:37;;;;;;;19.23;8.50;;;;;;;-141.97;100.00;46079.78;6160844;23;20566;-88
2023/12/08 04:45:04;;;;;;;19.60;9.83;;;;;;;-141.97;100.00;46479.41;6185548;23;20225;-89
2023/12/08 04:47:29;;;;;;;19.03;9.40;;;;;;;-141.97;100.00;46254.59;6158173;23;20220;-89
2023/12/08 04:49:55;;;;;;;23.63;11.80;;;;;;;-141.97;100.00;46540.91;6162858;23;20378;-88
2023/12/08 04:52:20;;;;;;;23.87;11.33;;;;;;;-141.97;100.00;46045.19;6192352;23;20136;-91
2023/12/08 04:54:46;;;;;;;26.23;11.83;;;;;;;-141.97;100.00;46492.88;6185189;23;20152;-91
2023/12/08 04:57:11;;;;;;;22.83;11.43;;;;;;;-141.97;100.00;46093.22;6188679;23;20143;-92
2023/12/08 04:59:38;;;;;;;21.67;10.20;;;;;;;-141.97;100.00;46191.22;6158992;23;20166;-92
2023/12/08 05:02:03;;;;;;;18.33;9.67;;;;;;;-141.97;100.00;46246.94;6158210;23;20645;-92
2023/12/08 05:04:29;;;;;;;16.03;7.73;;;;;;;-141.97;100.00;46202.72;6158297;23;20371;-91
2023/12/08 05:06:54;;;;;;;22.80;11.00;;;;;;;-141.97;100.00;46024.06;6161427;23;20142;-93
2023/12/08 05:09:20;;;;;;;20.03;9.57;;;;;;;-141.97;100.00;46573.56;6160366;23;20157;-90
2023/12/08 05:11:46;;;;;;;22.97;9.03;;;;;;;-141.97;100.00;46120.13;6196367;23;20266;-90
2023/12/08 05:14:11;;;;;;;29.57;11.87;;;;;;;-141.97;100.00;46039.44;6159305;23;20506;-91
2023/12/08 05:16:36;;;;;;;16.40;7.63;;;;;;;-141.97;100.00;46185.44;6184908;23;20134;-91
2023/12/08 05:19:02;;;;;;;25.93;12.23;;;;;;;-141.97;100.00;46054.81;6158752;23;20146;-90
2023/12/08 05:21:28;;;;;;;25.47;11.87;;;;;;;-141.97;100.00;46089.38;6184925;23;20649;-91
2023/12/08 05:23:54;;;;;;;24.93;11.67;;;;;;;-141.97;100.00;46204.66;6159157;23;20374;-90
2023/12/08 05:26:20;;;;;;;24.27;11.70;;;;;;;-141.97;100.00;46133.56;6158617;23;20181;-89
2023/12/08 05:28:45;;;;;;;18.73;9.57;;;;;;;-141.97;100.00;46563.97;6158611;23;20142;-92
2023/12/08 05:31:11;;;;;;;18.27;7.13;;;;;;;-141.97;100.00;46254.59;6158471;23;20161;-91
2023/12/08 05:33:36;;;;;;;21.00;11.10;;;;;;;-141.97;100.00;45947.22;6155051;23;20639;-90
2023/12/08 05:36:02;;;;;;;19.77;10.20;;;;;;;-141.97;100.00;46396.78;6185510;23;20143;-91
2023/12/08 05:38:28;;;;;;;18.37;9.60;;;;;;;-141.97;100.00;46166.22;6158337;23;20139;-91
2023/12/08 05:40:53;;;;;;;18.63;9.63;;;;;;;-141.97;100.00;46108.59;6159685;23;20186;-91
2023/12/08 05:43:19;;;;;;;22.00;11.40;;;;;;;-141.97;100.00;45931.84;6158141;23;20182;-88
2023/12/08 05:45:44;;;;;;;17.77;9.77;;;;;;;-141.97;100.00;46185.44;6183395;23;20240;-87
2023/12/08 05:48:10;;;;;;;17.73;8.57;;;;;;;-141.97;100.00;46260.38;6157303;23;20214;-87
2023/12/08 05:50:35;;;;;;;16.70;8.47;;;;;;;-141.97;100.00;46129.72;6157257;23;20587;-88
2023/12/08 05:53:01;;;;;;;20.00;9.67;;;;;;;-141.97;100.00;46577.41;6183606;23;20172;-88
2023/12/08 05:55:27;;;;;;;18.13;9.43;;;;;;;-141.97;100.00;46187.38;6157457;23;20153;-88
2023/12/08 05:57:52;;;;;;;22.23;10.90;;;;;;;-141.97;100.00;46181.59;6183820;23;20133;-89
2023/12/08 06:00:18;;;;;;;18.17;9.23;;;;;;;-141.97;100.00;46250.78;6182329;23;20456;-88
2023/12/08 06:02:46;;;;;;;20.90;10.33;;;;;;;-141.97;100.00;46154.69;6157000;23;20146;-88
2023/12/08 06:05:13;;;;;;;20.73;9.57;;;;;;;-141.97;100.00;46515.91;6183427;23;20373;-88
2023/12/08 06:07:38;;;;;;;18.43;8.60;;;;;;;-141.97;100.00;46515.91;6155328;23;20420;-89
2023/12/08 06:10:05;;;;;;;24.97;11.53;;;;;;;-141.97;100.00;46095.16;6183942;23;20456;-87
2023/12/08 06:12:31;;;;;;;26.67;12.67;;;;;;;-141.97;100.00;46241.16;6157522;23;20284;-88
2023/12/08 06:14:59;;;;;;;21.60;9.93;;;;;;;-141.97;100.00;46114.34;6185890;23;20358;-87
2023/12/08 06:17:26;;;;;;;24.80;11.43;;;;;;;-141.97;100.00;46025.97;6157578;23;20668;-88
2023/12/08 06:19:52;;;;;;;25.03;12.63;;;;;;;-141.97;100.00;46047.13;6183595;23;20417;-87
2023/12/08 06:22:18;;;;;;;27.37;13.47;;;;;;;-141.97;100.00;46231.56;6158177;23;20496;-87
2023/12/08 06:24:43;;;;;;;24.50;12.17;;;;;;;-141.97;100.00;45993.31;6186071;23;20463;-88
2023/12/08 06:27:09;;;;;;;30.50;13.67;;;;;;;-141.97;100.00;46120.13;6159285;23;20506;-88
2023/12/08 06:29:35;;;;;;;17.60;7.90;;;;;;;-141.97;100.00;46016.38;6158109;23;20192;-89
2023/12/08 06:32:00;;;;;;;23.03;10.37;;;;;;;-141.97;100.00;46289.19;6185652;23;20161;-88
2023/12/08 06:34:26;;;;;;;39.37;19.53;;;;;;;-141.97;100.00;46162.38;6185379;23;20221;-88
2023/12/08 06:36:52;;;;;;;21.47;11.50;;;;;;;-141.97;100.00;46469.81;6159392;23;20563;-87
2023/12/08 06:39:17;;;;;;;19.57;8.87;;;;;;;-141.97;100.00;46250.78;6185721;23;20134;-88
2023/12/08 06:41:43;;;;;;;21.63;11.40;;;;;;;-141.97;100.00;46254.59;6159016;23;20588;-87
2023/12/08 06:44:09;;;;;;;20.90;10.87;;;;;;;-141.97;100.00;46573.56;6185122;23;20144;-87
2023/12/08 06:46:34;;;;;;;21.33;10.80;;;;;;;-141.97;100.00;46508.22;6158773;23;20158;-87
2023/12/08 06:48:59;;;;;;;22.97;10.63;;;;;;;-141.97;100.00;46223.88;6185741;23;20142;-88
2023/12/08 06:51:25;;;;;;;18.47;8.70;;;;;;;-141.97;100.00;46243.09;6192430;23;20427;-86
2023/12/08 06:53:50;;;;;;;32.80;13.90;;;;;;;-141.97;100.00;46116.28;6179109;23;20142;-83
2023/12/08 06:56:16;;;;;;;41.83;19.37;;;;;;;-141.97;100.00;46195.06;6199857;23;20165;-85
2023/12/08 06:58:41;;;;;;;28.90;13.53;;;;;;;-141.97;100.00;46512.06;6189221;23;20138;-85
2023/12/08 07:01:07;;;;;;;33.97;16.27;;;;;;;-141.97;100.00;46258.44;6158775;23;20701;-86
2023/12/08 07:03:32;;;;;;;32.87;14.80;;;;;;;-141.97;100.00;46062.47;6185279;23;20138;-86
2023/12/08 07:05:57;;;;;;;25.47;11.23;;;;;;;-141.97;100.00;46191.22;6184916;23;20272;-86
2023/12/08 07:08:23;;;;;;;27.30;14.27;;;;;;;-141.97;100.00;46456.34;6158734;23;20233;-86
2023/12/08 07:10:48;;;;;;;32.10;15.50;;;;;;;-141.97;100.00;46644.66;6184473;23;20138;-85
2023/12/08 07:13:14;;;;;;;27.97;13.40;;;;;;;-141.97;100.00;46006.78;6186327;23;20160;-85
2023/12/08 07:15:39;;;;;;;26.20;12.80;;;;;;;-141.97;100.00;46123.97;6159956;23;20629;-86
2023/12/08 07:18:05;;;;;;;17.70;8.37;;;;;;;-141.97;100.00;46156.63;6158533;23;20164;-86
2023/12/08 07:20:30;;;;;;;35.87;15.63;;;;;;;-141.97;100.00;46575.50;6185123;23;20177;-86
2023/12/08 07:22:55;;;;;;;21.13;10.57;;;;;;;-141.97;100.00;46508.22;6159102;23;20202;-86
2023/12/08 07:25:21;;;;;;;23.73;11.50;;;;;;;-141.97;100.00;46102.81;6159098;23;20483;-86
2023/12/08 07:27:47;;;;;;;24.60;11.93;;;;;;;-141.97;100.00;46047.13;6184275;23;20233;-86
2023/12/08 07:30:13;;;;;;;26.60;13.07;;;;;;;-141.97;100.00;46558.19;6154333;23;20225;-85
2023/12/08 07:32:38;;;;;;;18.73;9.57;;;;;;;-141.97;100.00;46058.63;6159323;23;20177;-91
2023/12/08 07:35:07;;;;;;;21.03;10.67;;;;;;;-141.97;100.00;46154.69;6159602;23;20385;-91
2023/12/08 07:37:32;;;;;;;19.87;10.20;;;;;;;-141.97;100.00;46102.81;6159137;23;20146;-91
2023/12/08 07:39:58;;;;;;;21.83;10.97;;;;;;;-141.97;100.00;46248.84;6186347;23;20419;-92
2023/12/08 07:42:23;;;;;;;22.93;10.17;;;;;;;-141.97;100.00;46258.44;6161524;23;20558;-91
2023/12/08 07:44:52;;;;;;;26.50;13.23;;;;;;;-141.97;100.00;46266.13;6159194;23;20692;-90
2023/12/08 07:47:18;;;;;;;24.40;12.40;;;;;;;-141.97;100.00;46070.16;6184774;23;20158;-89
2023/12/08 07:49:52;;;;;;;20.43;9.83;;;;;;;-141.97;100.00;46429.47;6184656;23;20779;-88
2023/12/08 07:52:17;;;;;;;20.70;10.27;;;;;;;-141.97;100.00;45928.00;6184730;23;20552;-89
2023/12/08 07:54:43;;;;;;;22.93;10.77;;;;;;;-141.97;100.00;46450.59;6180372;23;20377;-88
2023/12/08 07:57:09;;;;;;;25.10;11.37;;;;;;;-141.97;100.00;46264.22;6157467;23;20160;-90
2023/12/08 07:59:35;;;;;;;23.73;11.90;;;;;;;-141.97;100.00;46487.09;6184181;23;20425;-90
2023/12/08 08:02:00;;;;;;;24.63;11.53;;;;;;;-141.97;100.00;46512.06;6159195;23;20221;-89
2023/12/08 08:04:26;;;;;;;20.87;11.40;;;;;;;-141.97;100.00;45970.25;6185095;23;20166;-89
2023/12/08 08:06:51;;;;;;;22.00;11.40;;;;;;;-141.97;100.00;46708.06;6168817;23;20206;-90
2023/12/08 08:09:18;;;;;;;20.10;9.30;;;;;;;-141.97;100.00;46041.34;6177860;23;20146;-90
2023/12/08 08:11:43;;;;;;;19.13;9.03;;;;;;;-141.97;100.00;46241.16;6182401;23;20204;-89
2023/12/08 08:14:12;;;;;;;26.90;12.40;;;;;;;-141.97;100.00;46058.63;6157261;23;20373;-92
2023/12/08 08:16:45;;;;;;;17.83;8.73;;;;;;;-141.97;100.00;46279.59;6158077;23;20533;-91
2023/12/08 08:19:41;;;;;;;25.67;12.73;;;;;;;-141.97;100.00;46246.94;6160815;23;20451;-93
2023/12/08 08:22:06;;;;;;;46.63;20.00;;;;;;;-141.97;100.00;45947.22;6160750;23;20416;-93
2023/12/08 08:25:31;;;;;;;22.03;10.50;;;;;;;-141.97;100.00;46248.84;6158232;23;20378;-92
2023/12/08 08:31:19;;;;;;;24.30;11.83;;;;;;;-141.97;100.00;46250.78;6063915;23;20468;-91
2023/12/08 08:34:59;;;;;;;;;;;;;;;;;;;;;
2023/12/08 08:42:01;;;;;;;20.43;10.87;;;;;;;-141.97;100.00;46462.13;5895660;24;20498;-92
2023/12/08 08:44:38;;;;;;;28.07;14.30;;;;;;;-141.97;100.00;46220.03;5827896;24;20422;-91
2023/12/08 08:47:30;;;;;;;22.87;12.00;;;;;;;-141.97;100.00;46464.03;5817561;24;20388;-92
2023/12/08 08:57:47;;;;;;;21.27;10.40;;;;;;;-141.97;100.00;46250.78;6166899;23;20455;-91
2023/12/08 09:00:25;;;;;;;17.90;8.93;;;;;;;-141.97;100.00;46260.38;6190264;23;20451;-92
2023/12/08 09:02:54;;;;;;;30.53;14.97;;;;;;;-141.97;100.00;46260.38;6181140;23;20460;-92
2023/12/08 09:05:20;;;;;;;19.47;10.17;;;;;;;-141.97;100.00;46148.94;6188146;23;20455;-93
2023/12/08 09:07:45;;;;;;;29.80;13.67;;;;;;;-141.97;100.00;46081.69;6189102;23;20452;-90
2023/12/08 09:10:11;;;;;;;31.07;15.47;;;;;;;-141.97;100.00;46264.22;6198436;23;20125;-93
2023/12/08 09:12:39;;;;;;;29.13;13.07;;;;;;;-141.97;100.00;46231.56;6201992;23;20146;-93
2023/12/08 09:15:05;;;;;;;29.87;12.57;;;;;;;-141.97;100.00;46271.91;6195154;23;20430;-89
2023/12/08 09:17:30;;;;;;;24.60;11.90;;;;;;;-141.97;100.00;46627.38;6188648;23;20368;-89
2023/12/08 09:19:56;;;;;;;25.00;11.47;;;;;;;-141.97;100.00;46070.16;6187511;23;20176;-92
2023/12/08 09:22:22;;;;;;;24.60;11.23;;;;;;;-141.97;100.00;46563.97;6189528;23;20803;-90
2023/12/08 09:24:47;;;;;;;29.07;13.97;;;;;;;-141.97;100.00;46018.28;6188056;23;20169;-93
2023/12/08 09:27:13;;;;;;;30.73;14.03;;;;;;;-141.97;100.00;46243.09;6188175;23;20141;-94
2023/12/08 09:29:39;;;;;;;29.67;12.73;;;;;;;-141.97;100.00;46195.06;6214192;23;20205;-92
2023/12/08 09:32:05;;;;;;;30.80;12.87;;;;;;;-141.97;100.00;45947.22;6189529;23;20205;-92
2023/12/08 09:34:30;;;;;;;34.80;16.40;;;;;;;-141.97;100.00;46185.44;6187011;23;20180;-93
2023/12/08 09:36:59;;;;;;;39.10;18.03;;;;;;;-141.97;100.00;46024.06;6215250;23;20376;-94
2023/12/08 09:39:25;;;;;;;36.77;15.70;;;;;;;-141.97;100.00;46183.53;6187813;23;20580;-93
2023/12/08 09:41:57;;;;;;;25.33;12.60;;;;;;;-141.97;100.00;46252.69;6187466;23;20479;-93
2023/12/08 09:44:23;;;;;;;29.60;13.97;;;;;;;-141.97;100.00;46260.38;6188360;23;20141;-92
2023/12/08 09:46:54;;;;;;;31.60;14.43;;;;;;;-141.97;100.00;46129.72;6187679;23;20372;-90
2023/12/08 09:49:27;;;;;;;28.83;13.90;;;;;;;-141.97;100.00;46256.53;6187114;23;20248;-88
2023/12/08 09:51:53;;;;;;;25.37;11.23;;;;;;;-141.97;100.00;46471.72;6213358;23;20401;-89
2023/12/08 09:54:19;;;;;;;22.40;10.03;;;;;;;-141.97;100.00;46131.66;6187675;23;20482;-87
2023/12/08 09:56:47;;;;;;;16.93;7.63;;;;;;;-141.97;100.00;46727.28;6187228;23;20142;-86
2023/12/08 09:59:14;;;;;;;19.27;8.30;;;;;;;-141.97;100.00;46074.00;6213758;23;20137;-87
2023/12/08 10:01:39;;;;;;;23.23;10.93;;;;;;;-141.97;100.00;46500.56;6186080;23;20484;-87
2023/12/08 10:04:05;;;;;;;23.40;11.17;;;;;;;-141.97;100.00;46112.44;6188192;23;20523;-84
2023/12/08 10:06:32;;;;;;;33.33;16.20;;;;;;;-141.97;100.00;46064.41;6213346;23;20211;-86
2023/12/08 10:08:58;;;;;;;39.23;19.17;;;;;;;-141.97;100.00;46515.91;6213581;23;20133;-85
2023/12/08 10:11:24;;;;;;;28.43;14.43;;;;;;;-141.97;100.00;46531.28;6186100;23;20494;-85
2023/12/08 10:13:50;;;;;;;30.30;12.53;;;;;;;-141.97;100.00;46220.03;6186881;23;20369;-85
2023/12/08 10:16:15;;;;;;;33.33;14.33;;;;;;;-141.97;100.00;46064.41;6213239;23;20415;-86
2023/12/08 10:18:41;;;;;;;29.57;13.83;;;;;;;-141.97;100.00;46481.34;6213008;23;20488;-85
2023/12/08 10:21:17;;;;;;;28.93;14.17;;;;;;;-141.97;100.00;45943.38;6187401;23;20606;-85
2023/12/08 10:23:44;;;;;;;43.27;17.57;;;;;;;-141.97;100.00;46585.09;6186656;23;20232;-84
2023/12/08 10:26:12;;;;;;;26.17;11.67;;;;;;;-141.97;100.00;46077.84;6186805;23;20376;-84
2023/12/08 10:28:38;;;;;;;28.03;13.63;;;;;;;-141.97;100.00;46104.75;6188949;23;20368;-85
2023/12/08 10:31:05;;;;;;;60.27;21.90;;;;;;;-141.97;100.00;46635.06;6189319;23;20364;-85
2023/12/08 10:33:30;;;;;;;25.93;11.77;;;;;;;-141.97;100.00;46104.75;6213070;23;20353;-85
2023/12/08 10:35:56;;;;;;;45.37;18.27;;;;;;;-141.97;100.00;46302.66;6186122;23;20379;-86
2023/12/08 10:38:21;;;;;;;58.97;22.43;;;;;;;-141.97;100.00;46738.81;6213436;23;20180;-86
2023/12/08 10:40:48;;;;;;;37.10;16.63;;;;;;;-141.97;100.00;46277.66;6212758;23;20176;-86
2023/12/08 10:43:25;;;;;;;44.80;21.43;;;;;;;-141.97;100.00;46285.34;6212670;23;20583;-85
2023/12/08 10:45:51;;;;;;;35.40;16.70;;;;;;;-141.97;100.00;46235.41;6212053;23;20379;-86
2023/12/08 10:48:21;;;;;;;32.43;15.67;;;;;;;-141.97;100.00;46001.00;6185755;23;20396;-86
2023/12/08 10:50:52;;;;;;;37.77;16.27;;;;;;;-141.97;100.00;46617.75;6186396;23;20365;-85
2023/12/08 10:53:19;;;;;;;36.53;16.23;;;;;;;-141.97;100.00;46254.59;6212910;23;20360;-86
2023/12/08 10:56:04;;;;;;;41.80;17.43;;;;;;;-141.97;100.00;46245.00;6212813;23;20361;-88
2023/12/08 10:58:32;;;;;;;26.67;13.37;;;;;;;-141.97;100.00;46254.59;6215547;23;20427;-86
2023/12/08 11:00:59;;;;;;;29.77;13.53;;;;;;;-141.97;100.00;46166.22;6189447;23;20811;-85
2023/12/08 11:03:34;;;;;;;27.93;12.90;;;;;;;-141.97;100.00;46271.91;6213175;23;20365;-86
2023/12/08 11:06:09;;;;;;;50.67;24.30;;;;;;;-141.97;100.00;46258.44;6186171;23;20392;-86
2023/12/08 11:08:36;;;;;;;35.27;17.23;;;;;;;-141.97;100.00;46120.13;6217541;23;20406;-85
2023/12/08 11:11:05;;;;;;;35.73;16.70;;;;;;;-141.97;100.00;46421.78;6215084;23;20365;-87
2023/12/08 11:13:39;;;;;;;31.90;13.97;;;;;;;-141.97;100.00;46262.28;6216821;23;20833;-85